.
WxDataArchive / Data Records for 2009-07-05
2009-07-04 July 2009 2009-07-06

Data Records for Sunday, 05 July 2009

Time	Temp	Chill	HIndex	Humid	Dewpt	 Wind 	HiWind	WindDir	Rain 	Barom 
-----	----	-----	------	-----	-----	------	------	-------	-----	----- 
00:00	63.9	63.9	63.9	94	62.1	0	0	---	0.00	29.954 
00:05	63.7	63.7	63.7	94	61.9	0	0	---	0.00	29.954 
00:10	63.7	63.7	63.7	94	61.9	0	0	---	0.00	29.954 
00:15	63.4	63.4	63.4	94	61.6	0	0	---	0.00	29.947 
00:20	63.2	63.2	63.2	94	61.4	0	0	---	0.00	29.947 
00:25	63.1	63.1	63.1	94	61.3	0	0	---	0.00	29.947 
00:30	62.9	62.9	62.9	94	61.1	0	0	---	0.00	29.947 
00:35	62.6	62.6	62.6	94	60.8	0	0	---	0.00	29.947 
00:40	62.4	62.4	62.4	94	60.6	0	0	---	0.00	29.947 
00:45	62.4	62.4	62.4	94	60.6	0	0	---	0.00	29.947 
00:50	62.3	62.3	62.3	95	60.8	0	0	---	0.00	29.947 
00:55	62.1	62.1	62.1	95	60.6	0	0	---	0.00	29.947 
01:00	62.0	62.0	62.0	95	60.5	0	0	---	0.00	29.953 
01:05	62.0	62.0	62.0	95	60.5	0	0	---	0.00	29.953 
01:10	61.8	61.8	61.8	95	60.3	0	0	---	0.00	29.953 
01:15	61.6	61.6	61.6	95	60.2	0	0	---	0.00	29.951 
01:20	61.5	61.5	61.5	95	60.1	0	0	---	0.00	29.951 
01:25	61.2	61.2	61.2	95	59.8	0	0	---	0.00	29.951 
01:30	61.0	61.0	61.0	95	59.6	0	0	---	0.00	29.957 
01:35	61.0	61.0	61.0	95	59.6	0	0	---	0.00	29.957 
01:40	61.0	61.0	61.0	95	59.6	0	0	---	0.00	29.957 
01:45	60.9	60.9	60.9	95	59.5	0	0	---	0.00	29.955 
01:50	60.9	60.9	60.9	95	59.5	0	0	---	0.00	29.955 
01:55	61.0	61.0	61.0	95	59.6	0	0	---	0.00	29.955 
02:00	61.0	61.0	61.0	95	59.6	0	0	---	0.00	29.954 
02:05	61.0	61.0	61.0	95	59.6	0	0	---	0.00	29.954 
02:10	61.2	61.2	61.2	95	59.8	0	0	---	0.00	29.954 
02:15	61.2	61.2	61.2	95	59.8	0	0	---	0.00	29.949 
02:20	61.0	61.0	61.0	95	59.6	0	0	---	0.00	29.949 
02:25	61.0	61.0	61.0	96	59.8	0	0	---	0.00	29.949 
02:30	61.0	61.0	61.0	96	59.8	0	0	---	0.00	29.946 
02:35	60.9	60.9	60.9	96	59.7	0	0	---	0.00	29.946 
02:40	60.9	60.9	60.9	96	59.7	0	0	---	0.00	29.946 
02:45	60.9	60.9	60.9	96	59.7	0	0	---	0.00	29.945 
02:50	60.9	60.9	60.9	96	59.7	0	0	---	0.00	29.945 
02:55	61.0	61.0	61.0	96	59.8	0	0	---	0.00	29.945 
03:00	61.2	61.2	61.2	96	60.0	0	0	---	0.00	29.939 
03:05	61.2	61.2	61.2	96	60.0	0	0	---	0.00	29.939 
03:10	61.2	61.2	61.2	96	60.0	0	0	---	0.00	29.939 
03:15	61.2	61.2	61.2	96	60.0	0	0	---	0.00	29.940 
03:20	61.3	61.3	61.3	96	60.1	0	0	---	0.00	29.940 
03:25	61.3	61.3	61.3	96	60.1	0	0	---	0.00	29.940 
03:30	61.5	61.5	61.5	96	60.3	0	0	---	0.00	29.932 
03:35	61.6	61.6	61.6	96	60.4	0	0	---	0.00	29.932 
03:40	61.8	61.8	61.8	96	60.6	0	0	---	0.00	29.932 
03:45	61.8	61.8	61.8	96	60.6	0	0	---	0.00	29.930 
03:50	62.0	62.0	62.0	96	60.8	0	0	---	0.00	29.930 
03:55	62.0	62.0	62.0	96	60.8	0	0	---	0.00	29.930 
04:00	62.0	62.0	62.0	96	60.8	0	0	---	0.00	29.927 
04:05	62.0	62.0	62.0	96	60.8	0	0	---	0.00	29.927 
04:10	62.0	62.0	62.0	96	60.8	0	0	---	0.00	29.927 
04:15	61.8	61.8	61.8	96	60.6	0	0	---	0.00	29.925 
04:20	61.8	61.8	61.8	96	60.6	0	0	---	0.00	29.925 
04:25	61.8	61.8	61.8	96	60.6	0	0	---	0.00	29.925 
04:30	61.8	61.8	61.8	96	60.6	0	0	---	0.00	29.920 
04:35	61.8	61.8	61.8	96	60.6	0	0	---	0.00	29.920 
04:40	61.8	61.8	61.8	96	60.6	0	0	---	0.00	29.920 
04:45	62.0	62.0	62.0	96	60.8	0	0	---	0.00	29.921 
04:50	62.0	62.0	62.0	96	60.8	0	0	---	0.00	29.921 
04:55	62.0	62.0	62.0	96	60.8	0	0	---	0.00	29.921 
05:00	62.0	62.0	62.0	96	60.8	0	0	---	0.00	29.920 
05:05	62.0	62.0	62.0	96	60.8	0	0	---	0.00	29.920 
05:10	62.1	62.1	62.1	96	60.9	0	0	---	0.00	29.920 
05:15	62.1	62.1	62.1	96	60.9	0	0	---	0.00	29.918 
05:20	62.1	62.1	62.1	96	60.9	0	0	---	0.00	29.918 
05:25	62.1	62.1	62.1	96	60.9	0	0	---	0.00	29.918 
05:30	62.1	62.1	62.1	96	60.9	0	0	---	0.00	29.918 
05:35	62.1	62.1	62.1	96	60.9	0	0	---	0.00	29.918 
05:40	62.1	62.1	62.1	96	60.9	0	0	---	0.00	29.918 
05:45	62.3	62.3	62.3	96	61.1	0	0	---	0.00	29.919 
05:50	62.3	62.3	62.3	96	61.1	0	0	---	0.00	29.919 
05:55	62.3	62.3	62.3	96	61.1	0	0	---	0.00	29.919 
06:00	62.3	62.3	62.3	96	61.1	0	0	---	0.00	29.926 
06:05	62.4	62.4	62.4	96	61.2	0	0	---	0.00	29.926 
06:10	62.4	62.4	62.4	96	61.2	0	0	---	0.00	29.926 
06:15	62.4	62.4	62.4	96	61.2	0	0	---	0.00	29.926 
06:20	62.4	62.4	62.4	96	61.2	0	0	---	0.00	29.926 
06:25	62.4	62.4	62.4	96	61.2	0	0	---	0.00	29.926 
06:30	62.6	62.6	62.6	96	61.4	0	1	315	0.00	29.928 
06:35	62.6	62.6	62.6	96	61.4	0	0	---	0.00	29.928 
06:40	62.6	62.6	62.6	96	61.4	0	0	---	0.00	29.928 
06:45	62.6	62.6	62.6	96	61.4	0	0	---	0.00	29.928 
06:50	62.7	62.7	62.7	96	61.5	0	1	315	0.00	29.928 
06:55	62.7	62.7	62.7	97	61.8	0	0	---	0.00	29.928 
07:00	62.7	62.7	62.7	97	61.8	0	0	---	0.00	29.929 
07:05	62.9	62.9	62.9	97	62.0	0	0	---	0.00	29.929 
07:10	63.1	63.1	63.1	97	62.2	0	1	315	0.00	29.929 
07:15	63.1	63.1	63.1	97	62.2	0	0	---	0.00	29.932 
07:20	63.2	63.2	63.2	97	62.3	0	0	---	0.00	29.932 
07:25	63.2	63.2	63.2	97	62.3	0	0	---	0.00	29.932 
07:30	63.2	63.2	63.2	97	62.3	0	1	315	0.00	29.933 
07:35	63.4	63.4	63.4	97	62.5	0	1	315	0.00	29.933 
07:40	63.4	63.4	63.4	97	62.5	0	1	315	0.00	29.933 
07:45	63.9	63.9	63.9	97	63.0	0	1	315	0.00	29.932 
07:50	64.2	64.2	64.2	97	63.3	0	0	---	0.00	29.932 
07:55	64.5	64.5	64.5	97	63.6	0	1	315	0.00	29.932 
08:00	64.8	64.8	64.8	97	63.9	0	2	315	0.00	29.930 
08:05	65.2	65.2	65.2	97	64.3	0	2	68	0.00	29.930 
08:10	65.3	65.3	65.3	97	64.4	1	4	90	0.00	29.930 
08:15	65.3	65.3	65.3	96	64.1	1	2	90	0.00	29.940 
08:20	65.6	65.6	65.6	96	64.4	0	2	90	0.00	29.940 
08:25	65.8	65.8	65.8	96	64.6	0	2	90	0.00	29.940 
08:30	66.0	66.0	66.0	96	64.8	0	3	90	0.00	29.943 
08:35	66.3	66.3	66.3	95	64.8	0	3	90	0.00	29.943 
08:40	66.9	66.9	66.9	93	64.8	0	1	90	0.00	29.943 
08:45	67.3	67.3	67.3	90	64.3	1	3	90	0.00	29.940 
08:50	67.8	67.8	67.8	88	64.1	0	2	90	0.00	29.940 
08:55	68.4	68.4	68.4	86	64.0	0	2	90	0.00	29.940 
09:00	68.8	68.8	68.8	83	63.4	1	3	90	0.00	29.942 
09:05	69.4	69.4	69.4	80	63.0	0	1	90	0.00	29.942 
09:10	70.1	70.1	70.1	77	62.5	1	2	90	0.00	29.942 
09:15	70.4	70.4	70.4	77	62.8	0	1	90	0.00	29.944 
09:20	70.9	70.9	70.9	76	62.9	0	3	90	0.00	29.944 
09:25	71.1	71.1	71.1	73	62.0	1	3	90	0.00	29.944 
09:30	71.5	71.5	71.5	75	63.1	0	2	90	0.00	29.941 
09:35	71.6	71.6	71.6	71	61.7	1	3	90	0.00	29.941 
09:40	72.0	72.0	72.0	71	62.1	0	2	90	0.00	29.941 
09:45	72.3	72.3	72.3	71	62.4	0	2	90	0.00	29.939 
09:50	72.3	72.3	72.3	70	62.0	1	3	90	0.00	29.939 
09:55	72.0	72.0	72.0	70	61.7	2	4	90	0.00	29.939 
10:00	72.1	72.1	72.1	69	61.4	1	3	90	0.00	29.940 
10:05	72.3	72.3	72.3	72	62.8	1	3	90	0.00	29.940 
10:10	72.7	72.7	72.7	67	61.1	1	4	90	0.00	29.940 
10:15	73.0	73.0	73.0	65	60.5	2	5	90	0.00	29.937 
10:20	72.8	72.8	72.8	65	60.3	2	4	68	0.00	29.937 
10:25	73.2	73.2	73.2	65	60.7	1	3	112	0.00	29.937 
10:30	73.7	73.7	73.7	67	62.0	1	2	112	0.00	29.940 
10:35	73.3	73.3	73.3	65	60.8	1	4	112	0.00	29.940 
10:40	73.3	73.3	73.3	65	60.8	0	2	112	0.00	29.940 
10:45	73.5	73.5	73.5	63	60.1	1	3	112	0.00	29.941 
10:50	73.9	73.9	73.9	63	60.5	1	4	68	0.00	29.941 
10:55	74.6	74.6	74.6	65	62.0	0	2	68	0.00	29.941 
11:00	74.9	74.9	74.9	61	60.5	1	4	68	0.00	29.936 
11:05	75.8	75.8	77.7	64	62.7	0	1	68	0.00	29.936 
11:10	75.6	75.6	77.8	59	60.2	1	3	68	0.00	29.936 
11:15	75.1	75.1	77.5	58	59.3	1	3	68	0.00	29.933 
11:20	74.9	74.9	74.9	58	59.1	0	2	112	0.00	29.933 
11:25	75.3	75.3	77.6	58	59.5	2	4	112	0.00	29.933 
11:30	75.3	75.3	77.5	62	61.4	1	4	90	0.00	29.928 
11:35	75.1	75.1	77.5	59	59.8	1	5	90	0.00	29.928 
11:40	75.4	75.4	77.7	57	59.1	2	4	90	0.00	29.928 
11:45	75.4	75.4	77.7	58	59.6	1	4	90	0.00	29.926 
11:50	75.3	75.3	77.6	58	59.5	0	1	0	0.00	29.926 
11:55	75.1	75.1	77.4	60	60.2	0	2	0	0.00	29.926 
12:00	75.4	75.4	77.7	58	59.6	1	3	315	0.00	29.919 
12:05	76.3	76.3	78.3	55	58.9	1	3	45	0.00	29.919 
12:10	76.8	76.8	78.6	54	58.9	1	3	112	0.00	29.919 
12:15	77.2	77.2	78.9	55	59.8	1	3	135	0.00	29.921 
12:20	77.7	77.7	79.2	55	60.2	1	3	135	0.00	29.921 
12:25	78.3	78.3	79.7	54	60.3	1	4	135	0.00	29.921 
12:30	78.1	78.1	79.5	55	60.6	1	4	112	0.00	29.917 
12:35	77.7	77.7	79.2	54	59.7	2	5	90	0.00	29.917 
12:40	77.7	77.7	79.2	54	59.7	1	4	90	0.00	29.917 
12:45	77.6	77.6	79.1	53	59.1	1	3	90	0.00	29.914 
12:50	77.7	77.7	79.2	55	60.2	1	3	90	0.00	29.914 
12:55	77.9	77.9	79.3	54	59.9	2	4	90	0.00	29.914 
13:00	77.9	77.9	79.3	53	59.4	1	5	90	0.00	29.909 
13:05	77.9	77.9	79.3	53	59.4	2	5	90	0.00	29.909 
13:10	78.3	78.3	79.6	52	59.2	1	5	112	0.00	29.909 
13:15	78.5	78.5	79.7	52	59.4	1	5	90	0.00	29.909 
13:20	78.6	78.6	79.8	52	59.5	2	5	90	0.00	29.909 
13:25	79.2	79.2	80.2	51	59.5	1	3	90	0.00	29.909 
13:30	79.8	79.8	80.6	50	59.5	1	3	90	0.00	29.908 
13:35	79.6	79.6	80.5	50	59.3	1	3	90	0.00	29.908 
13:40	79.4	79.4	80.6	54	61.3	2	5	90	0.00	29.908 
13:45	79.8	79.8	80.7	51	60.0	0	3	112	0.00	29.897 
13:50	79.9	79.9	80.5	48	58.4	1	4	112	0.00	29.897 
13:55	79.9	79.9	80.4	47	57.8	1	4	112	0.00	29.897 
14:00	79.8	79.8	80.4	47	57.8	0	2	112	0.00	29.893 
14:05	78.8	78.8	79.7	48	57.4	0	2	112	0.00	29.893 
14:10	77.9	77.9	79.1	49	57.2	0	2	112	0.00	29.893 
14:15	77.9	77.9	79.2	51	58.3	0	2	112	0.00	29.891 
14:20	78.1	78.1	79.3	50	57.9	0	2	112	0.00	29.891 
14:25	78.6	78.6	79.7	50	58.4	1	2	45	0.00	29.891 
14:30	79.4	79.4	80.2	49	58.5	0	2	45	0.00	29.885 
14:35	80.3	80.3	81.2	51	60.5	0	1	338	0.00	29.885 
14:40	80.5	80.5	80.7	45	57.2	0	3	338	0.00	29.885 
14:45	80.7	80.7	81.0	46	58.0	0	2	315	0.00	29.879 
14:50	80.9	80.9	81.3	47	58.8	0	1	315	0.00	29.879 
14:55	80.5	80.5	80.7	45	57.2	1	3	22	0.00	29.879 
15:00	79.8	79.8	80.5	48	58.3	1	3	45	0.00	29.881 
15:05	79.2	79.2	79.9	47	57.2	1	3	68	0.00	29.881 
15:10	79.0	79.0	80.0	50	58.7	0	2	68	0.00	29.881 
15:15	79.8	79.8	80.4	47	57.8	0	1	68	0.00	29.876 
15:20	80.5	80.5	80.7	45	57.2	1	5	112	0.00	29.876 
15:25	80.5	80.5	80.7	45	57.2	1	3	112	0.00	29.876 
15:30	80.3	80.3	80.7	46	57.6	0	2	292	0.00	29.874 
15:35	80.9	80.9	80.9	43	56.3	1	3	292	0.00	29.874 
15:40	81.2	81.2	81.0	42	55.9	1	3	315	0.00	29.874 
15:45	81.2	81.2	80.9	41	55.2	0	2	315	0.00	29.873 
15:50	80.5	80.5	80.5	42	55.3	1	3	315	0.00	29.873 
15:55	80.7	80.7	80.7	43	56.1	1	2	292	0.00	29.873 
16:00	81.2	81.2	81.1	43	56.5	1	3	292	0.00	29.866 
16:05	81.8	81.8	81.4	41	55.8	0	3	248	0.00	29.866 
16:10	82.0	82.0	81.3	39	54.6	1	7	292	0.00	29.866 
16:15	82.2	82.2	81.7	41	56.1	0	1	292	0.00	29.860 
16:20	82.4	82.4	81.6	38	54.2	1	2	315	0.00	29.860 
16:25	82.6	82.6	81.8	39	55.1	0	2	315	0.00	29.860 
16:30	82.4	82.4	81.8	40	55.6	1	2	315	0.00	29.858 
16:35	82.4	82.4	81.7	39	54.9	0	3	315	0.00	29.858 
16:40	82.4	82.4	81.6	38	54.2	1	4	270	0.00	29.858 
16:45	82.2	82.2	81.4	38	54.0	1	3	315	0.00	29.856 
16:50	82.6	82.6	81.8	39	55.1	1	2	315	0.00	29.856 
16:55	82.8	82.8	81.8	37	53.8	1	2	315	0.00	29.856 
17:00	82.4	82.4	81.7	39	54.9	0	2	315	0.00	29.854 
17:05	81.6	81.6	81.2	41	55.6	1	2	315	0.00	29.854 
17:10	81.1	81.1	80.7	40	54.5	0	2	202	0.00	29.854 
17:15	80.7	80.7	80.8	44	56.7	0	1	202	0.00	29.853 
17:20	81.1	81.1	80.9	42	55.8	1	3	158	0.00	29.853 
17:25	80.9	80.9	80.6	40	54.3	0	2	158	0.00	29.853 
17:30	80.3	80.3	80.2	41	54.4	0	3	158	0.00	29.850 
17:35	80.7	80.7	80.3	39	53.4	0	2	270	0.00	29.850 
17:40	81.4	81.4	80.8	38	53.3	1	2	315	0.00	29.850 
17:45	82.0	82.0	81.2	38	53.9	1	3	315	0.00	29.845 
17:50	82.2	82.2	81.2	36	52.6	1	3	292	0.00	29.845 
17:55	82.4	82.4	81.4	37	53.5	1	2	292	0.00	29.845 
18:00	82.4	82.4	81.6	38	54.2	1	3	292	0.00	29.844 
18:05	81.8	81.8	81.2	39	54.4	0	2	315	0.00	29.844 
18:10	81.4	81.4	80.8	38	53.3	0	2	315	0.00	29.844 
18:15	81.4	81.4	81.0	40	54.7	1	4	270	0.00	29.848 
18:20	81.4	81.4	81.1	41	55.4	1	4	270	0.00	29.848 
18:25	81.2	81.2	80.7	39	53.9	1	5	270	0.00	29.848 
18:30	80.9	80.9	80.8	42	55.6	0	2	338	0.00	29.846 
18:35	80.9	80.9	80.7	41	55.0	0	2	338	0.00	29.846 
18:40	80.7	80.7	80.6	42	55.4	0	4	292	0.00	29.846 
18:45	80.1	80.1	80.3	43	55.6	0	1	292	0.00	29.847 
18:50	79.8	79.8	80.0	43	55.3	1	2	292	0.00	29.847 
18:55	79.4	79.4	79.9	45	56.2	0	1	315	0.00	29.847 
19:00	79.2	79.2	79.7	44	55.4	0	1	315	0.00	29.847 
19:05	79.6	79.6	79.9	43	55.1	0	2	315	0.00	29.847 
19:10	79.6	79.6	80.0	44	55.7	0	2	315	0.00	29.847 
19:15	79.6	79.6	79.9	43	55.1	0	2	315	0.00	29.845 
19:20	79.8	79.8	80.0	42	54.6	0	1	315	0.00	29.845 
19:25	79.9	79.9	79.9	41	54.1	0	2	315	0.00	29.845 
19:30	79.9	79.9	80.0	42	54.7	0	2	315	0.00	29.847 
19:35	79.8	79.8	80.0	43	55.3	0	1	270	0.00	29.847 
19:40	79.8	79.8	79.9	41	54.0	0	1	270	0.00	29.847 
19:45	79.6	79.6	79.7	41	53.8	1	3	270	0.00	29.844 
19:50	79.4	79.4	79.6	41	53.6	0	2	270	0.00	29.844 
19:55	79.2	79.2	79.6	43	54.7	0	2	270	0.00	29.844 
20:00	79.0	79.0	79.5	43	54.6	0	1	270	0.00	29.844 
20:05	78.8	78.8	79.4	43	54.4	0	2	270	0.00	29.844 
20:10	78.6	78.6	79.3	44	54.8	0	2	270	0.00	29.844 
20:15	78.3	78.3	79.2	45	55.2	0	1	270	0.00	29.846 
20:20	78.1	78.1	79.0	45	55.0	0	2	270	0.00	29.846 
20:25	77.9	77.9	79.0	46	55.4	0	1	270	0.00	29.846 
20:30	77.6	77.6	78.8	46	55.2	0	2	270	0.00	29.848 
20:35	77.4	77.4	78.7	46	55.0	0	1	270	0.00	29.848 
20:40	77.2	77.2	78.6	47	55.4	0	1	270	0.00	29.848 
20:45	76.8	76.8	78.4	46	54.4	0	1	270	0.00	29.846 
20:50	76.7	76.7	78.4	47	54.9	0	1	270	0.00	29.846 
20:55	76.3	76.3	78.2	48	55.1	0	0	---	0.00	29.846 
21:00	76.0	76.0	78.0	48	54.9	0	0	---	0.00	29.847 
21:05	75.6	75.6	77.9	49	55.1	0	0	---	0.00	29.847 
21:10	75.3	75.3	77.7	50	55.4	0	0	---	0.00	29.847 
21:15	74.7	74.7	74.7	51	55.4	0	0	---	0.00	29.849 
21:20	74.2	74.2	74.2	52	55.4	0	0	---	0.00	29.849 
21:25	73.9	73.9	73.9	54	56.2	0	0	---	0.00	29.849 
21:30	73.3	73.3	73.3	54	55.6	0	1	270	0.00	29.857 
21:35	73.3	73.3	73.3	53	55.1	0	0	---	0.00	29.857 
21:40	73.3	73.3	73.3	53	55.1	0	0	---	0.00	29.857 
21:45	73.3	73.3	73.3	53	55.1	0	0	---	0.00	29.859 
21:50	73.2	73.2	73.2	54	55.5	0	0	---	0.00	29.859 
21:55	73.0	73.0	73.0	55	55.9	0	1	270	0.00	29.859 
22:00	72.8	72.8	72.8	55	55.7	0	1	270	0.00	29.868 
22:05	72.7	72.7	72.7	56	56.1	0	1	270	0.00	29.868 
22:10	72.5	72.5	72.5	57	56.4	0	1	270	0.00	29.868 
22:15	72.1	72.1	72.1	58	56.5	0	0	---	0.00	29.871 
22:20	71.8	71.8	71.8	59	56.7	0	1	270	0.00	29.871 
22:25	71.5	71.5	71.5	60	56.9	0	0	---	0.00	29.871 
22:30	70.9	70.9	70.9	61	56.8	0	0	---	0.00	29.878 
22:35	70.6	70.6	70.6	62	56.9	0	0	---	0.00	29.878 
22:40	70.3	70.3	70.3	62	56.7	0	0	---	0.00	29.878 
22:45	70.1	70.1	70.1	62	56.5	0	1	270	0.00	29.882 
22:50	69.9	69.9	69.9	63	56.7	0	0	---	0.00	29.882 
22:55	69.6	69.6	69.6	63	56.4	0	0	---	0.00	29.882 
23:00	69.4	69.4	69.4	64	56.7	0	0	---	0.00	29.888 
23:05	69.1	69.1	69.1	64	56.4	0	0	---	0.00	29.888 
23:10	68.9	68.9	68.9	64	56.2	0	0	---	0.00	29.888 
23:15	68.8	68.8	68.8	65	56.5	0	0	---	0.00	29.889 
23:20	68.6	68.6	68.6	65	56.4	0	0	---	0.00	29.889 
23:25	68.4	68.4	68.4	65	56.2	0	0	---	0.00	29.889 
23:30	68.4	68.4	68.4	64	55.7	0	0	---	0.00	29.892 
23:35	68.3	68.3	68.3	65	56.1	0	0	---	0.00	29.892 
23:40	68.1	68.1	68.1	65	55.9	0	0	---	0.00	29.892 
23:45	67.6	67.6	67.6	66	55.8	0	0	---	0.00	29.893 
23:50	67.3	67.3	67.3	66	55.5	0	0	---	0.00	29.893 
23:55	66.9	66.9	66.9	67	55.6	0	0	---	0.00	29.893 

CoCoRaHS
IN-AL-39
A2 Web Hosting
Creative Commons License
GoDaddy
search engine by freefind advanced

loaded 2018-11-13 01:58:00 • last modified 2010-11-18 10:43:29
Privacy PolicyDisclaimer
• wx.awcolley.com is powered by PmWiki v.2002016 •
• all content (unless otherwise noted) © 2018 A W Colley